Time;durP1;ratioP1;P1;durP2;ratioP2;P2;SDS_P1;SDS_P2;PMS_P1;PMS_P2;Temp;Humidity;BMP_temperature;BMP_pressure;BME280_temperature;BME280_humidity;BME280_pressure;Samples;Min_cycle;Max_cycle;Signal;HPM_P1;HPM_P2
2023/03/31 00:04:24;;;;;;;8.00;1.65;;;;;;;19.38;40.45;100272.88;16112662;19;131096;-46
2023/03/31 00:09:47;;;;;;;10.43;1.20;;;;;;;19.35;40.75;100242.88;16110669;19;129872;-47
2023/03/31 00:15:09;;;;;;;7.22;1.60;;;;;;;19.34;40.79;100243.16;16110450;19;129302;-46
2023/03/31 00:20:36;;;;;;;5.70;1.20;;;;;;;19.32;40.73;100246.19;16111484;19;129709;-46
2023/03/31 00:25:58;;;;;;;6.32;1.75;;;;;;;19.29;40.47;100232.03;16110248;19;131037;-46
2023/03/31 00:31:21;;;;;;;6.65;1.67;;;;;;;19.27;40.73;100226.75;16124207;19;130591;-46
2023/03/31 00:36:46;;;;;;;5.53;1.20;;;;;;;19.24;40.45;100227.28;16123724;19;130916;-46
2023/03/31 00:42:11;;;;;;;4.95;1.33;;;;;;;19.22;40.86;100223.94;16125532;19;129702;-46
2023/03/31 00:47:34;;;;;;;6.60;1.40;;;;;;;19.20;40.97;100217.81;16125914;19;129415;-52
2023/03/31 00:53:09;;;;;;;5.63;1.48;;;;;;;19.19;40.71;100208.66;16128097;19;129557;-46
2023/03/31 00:58:32;;;;;;;7.85;1.50;;;;;;;19.16;40.87;100187.00;16124740;19;130341;-47
2023/03/31 01:03:54;;;;;;;3.85;1.30;;;;;;;19.14;40.58;100189.19;16122430;19;129177;-47
2023/03/31 01:09:16;;;;;;;5.47;1.58;;;;;;;19.13;40.62;100182.00;16126546;19;129607;-44
2023/03/31 01:14:38;;;;;;;7.72;1.23;;;;;;;19.12;40.85;100168.41;16122159;19;134214;-48
2023/03/31 01:20:17;;;;;;;5.18;1.40;;;;;;;19.11;40.68;100139.00;16125083;19;129851;-48
2023/03/31 01:26:07;;;;;;;3.58;1.23;;;;;;;19.08;40.72;100121.78;16123520;19;130095;-46
2023/03/31 01:31:29;;;;;;;4.75;1.30;;;;;;;19.06;40.34;100109.31;16123912;19;129720;-48
2023/03/31 01:37:28;;;;;;;3.90;1.15;;;;;;;19.05;40.75;100078.00;16120394;19;132451;-46
2023/03/31 01:43:17;;;;;;;4.68;1.30;;;;;;;19.04;40.32;100061.63;16117255;19;130352;-47
2023/03/31 01:48:46;;;;;;;5.25;1.77;;;;;;;19.01;40.42;100042.78;16119355;19;129821;-48
2023/03/31 01:54:32;;;;;;;4.35;1.67;;;;;;;19.01;40.66;100040.81;16123779;19;130335;-46
2023/03/31 02:00:00;;;;;;;;;;;;;;;18.96;40.80;100015.84;16121750;19;129970;-49
2023/03/31 02:05:31;;;;;;;5.30;1.52;;;;;;;18.97;40.51;99989.78;16116811;19;132875;-47
2023/03/31 02:10:55;;;;;;;6.47;1.40;;;;;;;18.94;40.53;99973.72;16120722;19;130812;-45
2023/03/31 02:16:23;;;;;;;4.25;1.50;;;;;;;18.95;40.52;99953.22;16118249;19;130363;-46
2023/03/31 02:21:50;;;;;;;3.80;1.40;;;;;;;18.93;40.62;99933.25;16117317;19;129577;-47
2023/03/31 02:27:18;;;;;;;5.35;1.55;;;;;;;18.89;40.52;99909.97;16113468;19;130701;-47
2023/03/31 02:32:42;;;;;;;3.83;1.10;;;;;;;18.90;40.32;99889.47;16109182;19;130454;-44
2023/03/31 02:38:05;;;;;;;4.72;1.25;;;;;;;18.88;40.79;99863.94;16118713;19;129486;-47
2023/03/31 02:43:27;;;;;;;5.75;1.30;;;;;;;18.87;40.79;99862.28;16120212;19;130997;-45
2023/03/31 02:48:53;;;;;;;4.93;1.27;;;;;;;18.86;40.25;99855.91;16114658;19;129893;-44
2023/03/31 02:54:27;;;;;;;7.70;1.42;;;;;;;18.85;40.71;99856.19;16119117;19;130803;-47
2023/03/31 03:00:01;;;;;;;3.58;1.20;;;;;;;18.85;40.35;99854.25;16115479;19;129609;-48
2023/03/31 03:05:44;;;;;;;5.38;1.15;;;;;;;18.83;40.48;99844.56;16114214;19;133496;-51
2023/03/31 03:11:24;;;;;;;5.50;1.33;;;;;;;18.81;40.39;99830.16;16118612;19;129470;-46
2023/03/31 03:16:55;;;;;;;4.32;1.42;;;;;;;18.80;40.31;99822.94;16117064;19;131414;-45
2023/03/31 03:22:17;;;;;;;3.25;1.13;;;;;;;18.79;40.70;99799.91;16116926;19;129560;-46
2023/03/31 03:27:39;;;;;;;4.65;1.55;;;;;;;18.76;40.45;99781.91;16116201;19;130894;-46
2023/03/31 03:33:02;;;;;;;4.28;1.30;;;;;;;18.76;40.26;99762.53;16114022;19;129482;-47
2023/03/31 03:38:24;;;;;;;3.92;1.30;;;;;;;18.75;40.72;99752.53;16111395;19;129591;-46
2023/03/31 03:43:45;;;;;;;4.63;1.35;;;;;;;18.74;40.70;99745.34;16115624;19;130775;-47
2023/03/31 03:49:07;;;;;;;4.95;1.27;;;;;;;18.74;40.36;99722.34;16112683;19;130107;-47
2023/03/31 03:54:29;;;;;;;3.78;1.27;;;;;;;18.72;40.49;99700.44;16116991;19;129584;-45
2023/03/31 03:59:51;;;;;;;5.15;1.50;;;;;;;18.72;40.60;99681.06;16114194;19;129754;-45
2023/03/31 04:05:13;;;;;;;2.88;0.95;;;;;;;18.70;40.33;99646.44;16109605;19;129301;-48
2023/03/31 04:10:35;;;;;;;3.05;1.10;;;;;;;18.69;40.33;99662.25;16111288;19;130923;-49
2023/03/31 04:15:57;;;;;;;3.63;1.10;;;;;;;18.69;40.77;99683.56;16115752;19;129966;-45
2023/03/31 04:21:21;;;;;;;4.82;1.50;;;;;;;18.68;40.41;99668.88;16111951;19;130963;-48
2023/03/31 04:26:43;;;;;;;3.92;1.30;;;;;;;18.67;40.61;99658.91;16113038;19;131465;-46
2023/03/31 04:32:05;;;;;;;2.42;1.08;;;;;;;18.66;40.69;99624.00;16111678;19;129852;-45
2023/03/31 04:37:33;;;;;;;3.25;1.20;;;;;;;18.66;40.61;99596.31;16113084;19;129451;-47
2023/03/31 04:42:55;;;;;;;5.05;1.30;;;;;;;18.64;40.59;99575.53;16110240;19;130968;-45
2023/03/31 04:48:17;;;;;;;3.22;1.10;;;;;;;18.62;40.72;99567.50;16112996;19;129618;-46
2023/03/31 04:53:39;;;;;;;2.42;1.00;;;;;;;18.62;40.58;99553.63;16109326;19;132105;-47
2023/03/31 04:59:02;;;;;;;2.92;0.85;;;;;;;18.60;40.33;99542.00;16110909;19;132125;-45
2023/03/31 05:04:25;;;;;;;3.72;1.10;;;;;;;18.60;40.33;99537.31;16111312;19;131256;-46
2023/03/31 05:09:47;;;;;;;2.40;0.98;;;;;;;18.67;40.32;99531.47;16107361;19;129656;-47
2023/03/31 05:15:09;;;;;;;2.30;0.93;;;;;;;18.90;40.19;99527.25;16114700;19;130026;-46
2023/03/31 05:20:31;;;;;;;5.10;0.90;;;;;;;19.13;40.07;99510.25;16121928;19;129980;-48
2023/03/31 05:25:53;;;;;;;7.88;0.90;;;;;;;19.28;39.73;99510.22;16125145;19;129949;-48
2023/03/31 05:31:15;;;;;;;5.95;1.33;;;;;;;19.37;39.71;99500.19;16125992;19;129650;-49
2023/03/31 05:36:38;;;;;;;3.40;0.93;;;;;;;19.41;39.65;99489.34;16125107;19;131452;-45
2023/03/31 05:42:00;;;;;;;6.05;1.17;;;;;;;19.42;39.51;99488.22;16119871;19;130462;-47
2023/03/31 05:47:22;;;;;;;2.95;0.95;;;;;;;19.40;39.62;99481.31;16123174;19;130795;-48
2023/03/31 05:52:43;;;;;;;3.40;0.95;;;;;;;19.35;39.50;99471.91;16119328;19;130076;-50
2023/03/31 05:58:07;;;;;;;7.25;1.15;;;;;;;19.29;39.50;99473.06;16118257;19;130991;-46
2023/03/31 06:03:29;;;;;;;4.10;1.13;;;;;;;19.24;39.56;99456.44;16120358;19;129827;-52
2023/03/31 06:08:51;;;;;;;6.68;1.27;;;;;;;19.18;39.88;99450.06;16122222;19;129997;-45
2023/03/31 06:14:13;;;;;;;5.03;1.00;;;;;;;19.13;39.74;99450.13;16122323;19;130976;-47
2023/03/31 06:19:35;;;;;;;6.32;1.42;;;;;;;19.07;39.98;99443.78;16120076;19;129531;-48
2023/03/31 06:24:57;;;;;;;4.57;1.05;;;;;;;19.03;40.24;99439.91;16120936;19;129918;-47
2023/03/31 06:30:19;;;;;;;8.10;1.15;;;;;;;19.00;40.07;99446.00;16120827;19;130226;-45
2023/03/31 06:35:41;;;;;;;7.68;1.58;;;;;;;18.97;40.30;99434.66;16120405;19;131141;-43
2023/03/31 06:41:04;;;;;;;6.88;1.50;;;;;;;18.94;39.91;99436.09;16116996;19;129928;-44
2023/03/31 06:46:26;;;;;;;5.57;1.20;;;;;;;18.91;39.86;99431.09;16117950;19;130055;-45
2023/03/31 06:51:48;;;;;;;7.35;1.05;;;;;;;18.89;39.98;99434.13;16116814;19;130356;-48
2023/03/31 06:57:09;;;;;;;19.38;1.85;;;;;;;18.88;40.09;99428.88;16115614;19;130748;-43
2023/03/31 07:02:31;;;;;;;3.08;0.95;;;;;;;18.86;39.89;99425.56;16118091;19;131453;-43
2023/03/31 07:07:55;;;;;;;12.80;1.13;;;;;;;18.86;40.31;99420.88;16114578;19;130555;-45
2023/03/31 07:13:17;;;;;;;6.60;1.20;;;;;;;18.86;40.24;99428.34;16115289;19;129462;-43
2023/03/31 07:18:40;;;;;;;8.70;1.90;;;;;;;18.86;40.35;99418.09;16120209;19;129607;-43
2023/03/31 07:24:03;;;;;;;4.97;1.23;;;;;;;18.89;40.22;99420.28;16114399;19;129749;-44
2023/03/31 07:29:25;;;;;;;6.20;1.33;;;;;;;18.93;39.90;99415.03;16115003;19;132095;-45
2023/03/31 07:34:46;;;;;;;7.97;1.25;;;;;;;18.98;40.14;99414.97;16115868;19;131093;-42
2023/03/31 07:40:11;;;;;;;5.78;1.33;;;;;;;19.02;40.16;99406.91;16110494;19;130518;-46
2023/03/31 07:45:34;;;;;;;4.70;1.67;;;;;;;19.05;40.31;99404.41;16115927;19;131174;-43
2023/03/31 07:50:56;;;;;;;5.95;1.52;;;;;;;19.06;39.91;99397.75;16117378;19;129299;-45
2023/03/31 07:56:21;;;;;;;9.55;1.75;;;;;;;19.08;39.80;99397.47;16115205;19;133829;-44
2023/03/31 08:01:43;;;;;;;10.00;1.83;;;;;;;19.07;40.05;99398.56;16115212;19;131076;-45
2023/03/31 08:07:05;;;;;;;8.57;1.90;;;;;;;19.06;39.97;99392.22;16115942;19;131286;-45
2023/03/31 08:12:27;;;;;;;10.48;1.90;;;;;;;19.05;40.11;99396.09;16114168;19;129717;-45
2023/03/31 08:17:49;;;;;;;13.60;2.15;;;;;;;19.06;39.68;99392.22;16112040;19;130117;-43
2023/03/31 08:23:11;;;;;;;6.68;1.55;;;;;;;19.04;39.83;99391.69;16113861;19;129283;-52
2023/03/31 08:28:33;;;;;;;10.70;2.08;;;;;;;19.04;39.62;99388.91;16113641;19;130478;-44
2023/03/31 08:33:55;;;;;;;8.93;2.40;;;;;;;19.03;40.05;99390.00;16113184;19;130217;-44
2023/03/31 08:39:17;;;;;;;12.95;2.15;;;;;;;19.06;39.55;99386.69;16111642;19;129702;-45
2023/03/31 08:44:45;;;;;;;12.68;2.45;;;;;;;19.12;39.72;99372.78;16113331;19;130334;-47
2023/03/31 08:50:14;;;;;;;12.55;2.78;;;;;;;19.19;39.90;99370.53;16120651;19;131101;-44
2023/03/31 08:55:47;;;;;;;13.40;2.70;;;;;;;19.27;39.60;99372.69;16126542;19;130200;-47
2023/03/31 09:01:15;;;;;;;13.25;2.92;;;;;;;19.30;39.55;99361.03;16125670;19;131194;-47
2023/03/31 09:06:49;;;;;;;17.92;3.35;;;;;;;19.34;39.23;99356.56;16124543;19;129708;-44
2023/03/31 09:12:58;;;;;;;11.02;2.42;;;;;;;19.38;39.14;99356.81;16125276;19;130135;-44
2023/03/31 09:18:30;;;;;;;9.55;2.45;;;;;;;19.43;39.23;99350.41;16123913;19;130028;-45
2023/03/31 09:24:06;;;;;;;13.20;3.08;;;;;;;19.42;38.87;99344.00;16123211;19;129427;-44
2023/03/31 09:29:46;;;;;;;12.73;2.83;;;;;;;19.40;39.17;99337.09;16125525;19;129751;-45
2023/03/31 09:35:20;;;;;;;18.95;4.15;;;;;;;19.38;39.18;99334.63;16124546;19;130014;-48
2023/03/31 09:40:42;;;;;;;24.63;3.10;;;;;;;19.32;39.07;99317.19;16123060;19;130018;-46
2023/03/31 09:46:37;;;;;;;15.65;3.10;;;;;;;19.33;39.15;99318.84;16124956;19;129457;-46
2023/03/31 09:52:20;;;;;;;17.30;3.60;;;;;;;19.33;39.16;99321.63;16123967;19;129647;-45
2023/03/31 09:57:42;;;;;;;18.80;5.57;;;;;;;19.34;38.65;99301.09;16124984;19;131192;-46
2023/03/31 10:03:07;;;;;;;29.33;8.55;;;;;;;19.36;38.96;99301.63;16121066;19;130011;-47
2023/03/31 10:08:56;;;;;;;33.25;15.00;;;;;;;19.38;39.06;99304.13;16121161;19;131769;-44
2023/03/31 10:14:26;;;;;;;38.20;16.20;;;;;;;19.37;39.22;99294.16;16123477;19;129938;-46
2023/03/31 10:20:04;;;;;;;56.22;25.67;;;;;;;19.38;38.92;99285.53;16124163;19;130224;-45
2023/03/31 10:25:27;;;;;;;57.83;26.63;;;;;;;19.37;39.43;99274.75;16121694;19;130195;-47
2023/03/31 10:30:52;;;;;;;55.50;22.95;;;;;;;19.38;39.51;99280.00;16121297;19;130674;-46
2023/03/31 10:36:22;;;;;;;55.77;24.30;;;;;;;19.40;39.35;99289.97;16120461;19;130162;-47
2023/03/31 10:41:50;;;;;;;68.88;31.40;;;;;;;19.38;40.17;99281.94;16118954;19;129785;-46
2023/03/31 10:47:12;;;;;;;50.65;20.50;;;;;;;19.36;39.94;99271.13;16116315;19;129471;-44
2023/03/31 10:52:43;;;;;;;40.47;14.93;;;;;;;19.41;39.69;99266.66;16115804;19;129333;-44
2023/03/31 10:58:25;;;;;;;35.60;12.15;;;;;;;19.53;39.22;99253.22;16110639;19;130666;-44
2023/03/31 11:03:52;;;;;;;25.85;9.32;;;;;;;19.73;39.05;99246.63;16117427;19;129538;-43
2023/03/31 11:09:50;;;;;;;33.67;9.68;;;;;;;19.90;38.79;99239.75;16117854;19;129720;-46
2023/03/31 11:15:41;;;;;;;29.30;8.45;;;;;;;19.97;38.51;99241.06;16119046;19;129937;-43
2023/03/31 11:21:27;;;;;;;25.85;7.25;;;;;;;20.01;38.71;99234.97;16120973;19;132957;-47
2023/03/31 11:27:15;;;;;;;21.10;6.40;;;;;;;19.99;38.35;99232.47;16118873;19;130410;-45
2023/03/31 11:32:55;;;;;;;19.73;7.20;;;;;;;19.96;38.71;99231.09;16116663;19;129618;-45
2023/03/31 11:38:41;;;;;;;28.08;6.45;;;;;;;19.92;38.39;99230.03;16119915;19;131098;-44
2023/03/31 11:44:13;;;;;;;16.63;4.83;;;;;;;19.84;38.63;99230.69;16117086;19;130150;-44
2023/03/31 11:49:41;;;;;;;15.85;4.72;;;;;;;19.77;38.40;99214.38;16116350;19;129296;-45
2023/03/31 11:55:20;;;;;;;16.38;5.18;;;;;;;19.72;38.85;99216.41;16117938;19;133626;-45
2023/03/31 12:00:56;;;;;;;16.80;5.03;;;;;;;19.67;38.79;99198.72;16116971;19;129997;-46
2023/03/31 12:06:22;;;;;;;14.23;5.00;;;;;;;19.63;38.90;99189.31;16117406;19;130249;-43
2023/03/31 12:12:05;;;;;;;18.65;4.38;;;;;;;19.61;38.61;99183.22;16114875;19;130616;-45
2023/03/31 12:17:28;;;;;;;14.82;4.85;;;;;;;19.55;38.87;99178.88;16113912;19;129454;-47
2023/03/31 12:22:50;;;;;;;12.25;3.83;;;;;;;19.52;38.91;99173.91;16113080;19;131724;-43
2023/03/31 12:28:13;;;;;;;13.90;3.42;;;;;;;19.50;39.09;99165.91;16111970;19;129289;-43
2023/03/31 12:33:42;;;;;;;12.13;3.47;;;;;;;19.52;38.79;99185.81;16111403;19;129449;-46
2023/03/31 12:39:37;;;;;;;9.52;3.28;;;;;;;19.61;38.68;99180.44;16113585;19;129226;-48
2023/03/31 12:45:18;;;;;;;11.30;3.13;;;;;;;19.74;38.88;99190.03;16113692;19;129629;-43
2023/03/31 12:51:04;;;;;;;12.27;2.90;;;;;;;19.86;38.27;99189.59;16110987;19;129282;-48
2023/03/31 12:56:26;;;;;;;9.20;2.92;;;;;;;19.96;38.37;99172.78;16111318;19;130828;-44
2023/03/31 13:02:07;;;;;;;9.23;3.03;;;;;;;20.09;38.16;99159.34;16111528;19;129369;-44
2023/03/31 13:07:28;;;;;;;8.13;2.50;;;;;;;20.16;38.31;99153.41;16111443;19;129542;-44
2023/03/31 13:13:03;;;;;;;6.30;2.33;;;;;;;20.22;38.14;99147.47;16107364;19;130180;-44
2023/03/31 13:18:27;;;;;;;7.57;2.53;;;;;;;20.25;38.13;99144.13;16108058;19;129331;-43
2023/03/31 13:23:50;;;;;;;8.63;2.55;;;;;;;20.26;37.77;99123.56;16104894;19;129621;-45
2023/03/31 13:29:16;;;;;;;12.18;2.60;;;;;;;20.24;37.48;99125.81;16109847;19;129463;-44
2023/03/31 13:34:45;;;;;;;11.30;2.28;;;;;;;20.19;37.47;99130.59;16110063;19;129853;-46
2023/03/31 13:40:15;;;;;;;11.77;2.47;;;;;;;20.13;37.63;99149.28;16121638;19;129945;-42
2023/03/31 13:45:53;;;;;;;12.50;2.20;;;;;;;20.04;37.68;99137.22;16126044;19;130996;-44
2023/03/31 13:51:14;;;;;;;9.52;2.08;;;;;;;19.94;37.80;99138.16;16121821;19;130517;-42
2023/03/31 13:56:58;;;;;;;9.13;1.90;;;;;;;19.86;38.05;99136.06;16120494;19;129937;-46
2023/03/31 14:02:34;;;;;;;8.90;2.05;;;;;;;19.77;38.19;99135.88;16120851;19;130073;-44
2023/03/31 14:08:07;;;;;;;29.07;8.37;;;;;;;19.76;38.02;99131.44;16122913;19;130155;-45
2023/03/31 14:13:29;;;;;;;25.38;12.00;;;;;;;19.79;38.54;99133.63;16117997;19;128892;-45
2023/03/31 14:18:57;;;;;;;29.58;12.20;;;;;;;19.78;38.44;99120.88;16119486;19;129594;-45
2023/03/31 14:24:28;;;;;;;26.17;11.30;;;;;;;19.76;38.30;99112.03;16120039;19;130933;-45
2023/03/31 14:30:22;;;;;;;30.65;10.60;;;;;;;19.71;38.74;99109.31;16121607;19;129469;-45
2023/03/31 14:36:12;;;;;;;28.13;8.93;;;;;;;19.68;38.82;99106.03;16119322;19;130282;-45
2023/03/31 14:41:36;;;;;;;21.67;8.07;;;;;;;19.66;38.74;99107.44;16118522;19;129709;-44
2023/03/31 14:46:59;;;;;;;25.20;7.80;;;;;;;19.65;39.07;99101.06;16119870;19;130352;-43
2023/03/31 14:52:24;;;;;;;23.90;7.68;;;;;;;19.73;38.75;99101.53;16118940;19;129681;-45
2023/03/31 14:57:47;;;;;;;29.33;6.50;;;;;;;19.80;39.12;99102.00;16114743;19;129367;-43
2023/03/31 15:03:13;;;;;;;21.98;6.00;;;;;;;19.91;38.64;99097.94;16116597;19;130748;-45
2023/03/31 15:08:37;;;;;;;20.38;4.53;;;;;;;20.05;38.54;99097.22;16115535;19;131549;-45
2023/03/31 15:13:59;;;;;;;14.10;4.43;;;;;;;20.14;38.14;99092.66;16119962;19;129287;-43
2023/03/31 15:19:34;;;;;;;18.52;3.60;;;;;;;20.23;38.06;99082.50;16116907;19;129619;-45
2023/03/31 15:24:56;;;;;;;15.43;3.60;;;;;;;20.28;38.03;99085.19;16115644;19;130630;-44
2023/03/31 15:30:22;;;;;;;12.50;3.35;;;;;;;20.34;38.01;99083.16;16119328;19;129436;-45
2023/03/31 15:35:45;;;;;;;18.88;2.80;;;;;;;20.33;37.99;99092.63;16114712;19;129772;-48
2023/03/31 15:41:12;;;;;;;16.23;2.42;;;;;;;20.28;37.64;99085.19;16114758;19;130100;-49
2023/03/31 15:46:34;;;;;;;6.90;2.03;;;;;;;20.19;37.53;99080.63;16117585;19;129302;-46
2023/03/31 15:51:56;;;;;;;6.68;2.08;;;;;;;20.10;37.38;99077.72;16117975;19;129610;-46
2023/03/31 15:57:18;;;;;;;10.55;2.15;;;;;;;20.02;37.27;99076.44;16112007;19;132945;-47
2023/03/31 16:02:45;;;;;;;7.38;1.40;;;;;;;19.95;37.18;99082.31;16112814;19;129719;-45
2023/03/31 16:08:20;;;;;;;8.70;1.30;;;;;;;19.87;37.29;99069.13;16106297;19;132895;-46
2023/03/31 16:13:49;;;;;;;13.30;2.35;;;;;;;19.80;37.52;99083.38;16112618;19;129900;-46
2023/03/31 16:19:11;;;;;;;12.18;2.17;;;;;;;19.74;37.67;99072.66;16110311;19;130007;-46
2023/03/31 16:24:34;;;;;;;17.95;2.22;;;;;;;19.68;37.79;99077.44;16110734;19;130741;-46
2023/03/31 16:30:09;;;;;;;10.82;2.40;;;;;;;19.63;37.91;99067.25;16108871;19;129956;-48
2023/03/31 16:35:35;;;;;;;14.43;2.35;;;;;;;19.59;38.11;99080.06;16110634;19;129287;-47
2023/03/31 16:40:57;;;;;;;9.38;1.83;;;;;;;19.64;38.01;99074.47;16111640;19;129469;-47
2023/03/31 16:46:20;;;;;;;13.55;2.38;;;;;;;19.78;37.91;99073.72;16115523;19;129547;-46
2023/03/31 16:51:42;;;;;;;6.95;2.00;;;;;;;19.91;37.97;99072.97;16106422;19;129657;-44
2023/03/31 16:57:05;;;;;;;6.20;2.03;;;;;;;20.04;38.15;99073.38;16111415;19;130708;-45
2023/03/31 17:02:27;;;;;;;9.25;1.70;;;;;;;20.16;37.88;99073.75;16109257;19;129656;-47
2023/03/31 17:07:50;;;;;;;9.15;1.63;;;;;;;20.24;38.34;99089.69;16110298;19;131220;-49
2023/03/31 17:13:13;;;;;;;17.20;2.28;;;;;;;20.29;38.37;99086.00;16122672;19;129480;-42
2023/03/31 17:18:34;;;;;;;14.45;1.95;;;;;;;20.29;38.26;99077.69;16126164;19;130063;-45
2023/03/31 17:23:57;;;;;;;10.23;1.92;;;;;;;20.29;38.13;99092.41;16127356;19;130006;-39
2023/03/31 17:29:22;;;;;;;11.20;2.08;;;;;;;20.23;38.42;99084.47;16122369;19;129827;-48
2023/03/31 17:34:46;;;;;;;15.32;1.80;;;;;;;20.17;38.46;99082.88;16121640;19;129521;-48
2023/03/31 17:40:08;;;;;;;6.30;1.70;;;;;;;20.18;38.94;99079.81;16125197;19;131206;-49
2023/03/31 17:45:31;;;;;;;23.58;2.50;;;;;;;20.24;38.33;99094.44;16124072;19;129457;-47
2023/03/31 17:50:53;;;;;;;16.85;1.92;;;;;;;20.29;38.76;99080.47;16121503;19;129495;-51
2023/03/31 17:56:16;;;;;;;11.57;1.73;;;;;;;20.44;38.34;99088.53;16121110;19;131460;-46
2023/03/31 18:01:38;;;;;;;12.80;2.08;;;;;;;20.63;38.30;99084.06;16117280;19;132878;-42
2023/03/31 18:07:00;;;;;;;16.08;1.50;;;;;;;20.74;38.07;99096.66;16121444;19;131636;-49
2023/03/31 18:12:22;;;;;;;14.30;1.73;;;;;;;20.77;38.08;99098.84;16120712;19;129383;-46
2023/03/31 18:17:43;;;;;;;22.30;1.90;;;;;;;20.79;38.02;99093.81;16123085;19;130051;-46
2023/03/31 18:23:05;;;;;;;15.32;1.88;;;;;;;20.77;38.05;99107.19;16118505;19;130477;-46
2023/03/31 18:28:27;;;;;;;5.40;1.35;;;;;;;20.72;37.71;99094.19;16123836;19;130032;-45
2023/03/31 18:33:51;;;;;;;7.80;1.48;;;;;;;20.69;38.11;99105.91;16123901;19;131731;-59
2023/03/31 18:39:13;;;;;;;12.40;1.73;;;;;;;20.66;38.39;99114.03;16123831;19;131236;-47
2023/03/31 18:44:35;;;;;;;7.72;1.63;;;;;;;20.56;38.05;99113.06;16122007;19;129912;-48
2023/03/31 18:49:57;;;;;;;13.48;1.60;;;;;;;20.48;38.36;99113.75;16117961;19;130061;-46
2023/03/31 18:55:19;;;;;;;10.70;1.63;;;;;;;20.47;38.51;99114.88;16115219;19;130955;-46
2023/03/31 19:00:41;;;;;;;13.40;1.52;;;;;;;20.60;38.47;99108.56;16122928;19;130158;-46
2023/03/31 19:06:11;;;;;;;15.73;2.30;;;;;;;20.96;37.76;99117.41;16123913;19;129310;-47
2023/03/31 19:11:33;;;;;;;13.30;2.10;;;;;;;21.31;37.58;99112.28;16120859;19;130344;-45
2023/03/31 19:16:55;;;;;;;11.75;1.65;;;;;;;21.60;37.06;99111.19;16122756;19;129279;-48
2023/03/31 19:22:17;;;;;;;11.60;1.80;;;;;;;21.88;36.69;99108.38;16120302;19;129551;-49
2023/03/31 19:27:40;;;;;;;8.10;1.80;;;;;;;22.13;36.09;99113.34;16121464;19;129408;-49
2023/03/31 19:33:02;;;;;;;9.20;1.80;;;;;;;22.32;35.79;99109.59;16120327;19;129298;-44
2023/03/31 19:38:25;;;;;;;7.50;1.55;;;;;;;22.46;35.43;99125.41;16118328;19;129346;-49
2023/03/31 19:43:47;;;;;;;19.63;2.63;;;;;;;22.54;35.31;99107.94;16118467;19;129311;-45
2023/03/31 19:49:09;;;;;;;17.77;2.25;;;;;;;22.62;35.45;99106.34;16117299;19;130703;-48
2023/03/31 19:54:31;;;;;;;26.02;2.42;;;;;;;22.66;35.46;99101.78;16116367;19;129498;-49
2023/03/31 19:59:53;;;;;;;21.42;2.13;;;;;;;22.66;35.16;99110.97;16116694;19;132587;-48
2023/03/31 20:05:15;;;;;;;19.73;2.63;;;;;;;22.63;35.19;99108.84;16115546;19;129591;-50
2023/03/31 20:10:37;;;;;;;26.45;2.53;;;;;;;22.57;35.55;99104.50;16113591;19;129822;-48
2023/03/31 20:16:06;;;;;;;28.80;2.83;;;;;;;22.47;35.46;99096.41;16116577;19;129545;-46
2023/03/31 20:21:31;;;;;;;31.92;2.90;;;;;;;22.30;35.90;99088.75;16114051;19;131782;-47
2023/03/31 20:26:53;;;;;;;17.93;2.47;;;;;;;22.15;36.09;99103.84;16114166;19;129477;-45
2023/03/31 20:32:16;;;;;;;25.70;2.78;;;;;;;21.97;36.49;99093.38;16110485;19;131032;-48
2023/03/31 20:37:37;;;;;;;19.10;3.00;;;;;;;21.83;37.01;99093.41;16115318;19;132425;-46
2023/03/31 20:42:59;;;;;;;18.05;2.83;;;;;;;21.70;36.92;99116.53;16112372;19;129640;-47
2023/03/31 20:48:21;;;;;;;16.23;2.25;;;;;;;21.57;37.31;99106.22;16127901;19;130118;-47
2023/03/31 20:53:48;;;;;;;19.30;3.00;;;;;;;21.45;37.30;99110.34;16129812;19;135820;-51
2023/03/31 20:59:13;;;;;;;20.15;2.38;;;;;;;21.32;37.54;99105.59;16127990;19;129056;-52
2023/03/31 21:04:35;;;;;;;21.60;2.67;;;;;;;21.18;37.68;99117.53;16126256;19;130425;-51
2023/03/31 21:09:57;;;;;;;13.13;1.65;;;;;;;21.08;37.99;99120.50;16123776;19;129400;-50
2023/03/31 21:15:19;;;;;;;13.82;2.47;;;;;;;21.00;38.23;99112.91;16124665;19;129964;-48
2023/03/31 21:20:51;;;;;;;17.50;2.10;;;;;;;20.89;38.44;99126.16;16124070;19;132683;-50
2023/03/31 21:26:14;;;;;;;15.73;1.90;;;;;;;20.83;38.21;99119.84;16125267;19;130067;-50
2023/03/31 21:31:36;;;;;;;9.60;3.03;;;;;;;20.82;38.16;99118.19;16124250;19;130904;-50
2023/03/31 21:36:59;;;;;;;19.02;2.28;;;;;;;20.80;38.19;99117.69;16123215;19;134162;-49
2023/03/31 21:42:21;;;;;;;7.18;1.70;;;;;;;20.80;38.11;99128.78;16125803;19;131759;-50
2023/03/31 21:47:43;;;;;;;17.08;2.20;;;;;;;20.76;38.21;99125.00;16121051;19;130411;-47
2023/03/31 21:53:07;;;;;;;15.52;2.10;;;;;;;20.71;38.02;99136.16;16121291;19;130168;-51
2023/03/31 21:58:30;;;;;;;12.43;2.08;;;;;;;20.66;38.26;99127.94;16119971;19;130833;-46
2023/03/31 22:03:52;;;;;;;12.45;1.85;;;;;;;20.60;38.04;99125.22;16119388;19;130405;-48
2023/03/31 22:09:14;;;;;;;11.50;1.48;;;;;;;20.55;38.27;99128.09;16123507;19;129232;-51
2023/03/31 22:14:36;;;;;;;11.43;2.30;;;;;;;20.50;38.34;99128.16;16116987;19;130827;-48
2023/03/31 22:19:58;;;;;;;8.18;2.00;;;;;;;20.44;38.11;99129.38;16122132;19;133211;-46
2023/03/31 22:25:20;;;;;;;12.85;1.90;;;;;;;20.37;38.62;99126.97;16116280;19;129551;-52
2023/03/31 22:30:43;;;;;;;6.03;1.73;;;;;;;20.34;38.41;99129.53;16116322;19;130689;-45
2023/03/31 22:36:06;;;;;;;13.23;2.20;;;;;;;20.28;38.79;99132.41;16116107;19;129682;-48
2023/03/31 22:41:28;;;;;;;11.68;1.77;;;;;;;20.22;38.36;99136.38;16119393;19;129847;-54
2023/03/31 22:46:50;;;;;;;10.00;1.60;;;;;;;20.18;38.50;99148.38;16119204;19;130792;-50
2023/03/31 22:52:12;;;;;;;11.75;1.50;;;;;;;20.13;38.40;99146.50;16118772;19;129325;-48
2023/03/31 22:57:34;;;;;;;12.23;1.88;;;;;;;20.07;38.79;99145.75;16116278;19;130164;-49
2023/03/31 23:02:56;;;;;;;8.60;1.83;;;;;;;20.04;38.68;99148.31;16113508;19;131632;-48
2023/03/31 23:08:18;;;;;;;9.25;1.50;;;;;;;20.01;38.65;99152.50;16114382;19;135246;-51
2023/03/31 23:13:40;;;;;;;18.92;2.13;;;;;;;19.98;38.83;99153.09;16118109;19;131078;-49
2023/03/31 23:19:02;;;;;;;13.63;1.80;;;;;;;19.94;39.02;99158.38;16116922;19;130348;-52
2023/03/31 23:24:24;;;;;;;11.52;2.38;;;;;;;19.90;39.03;99171.22;16112901;19;129843;-48
2023/03/31 23:29:46;;;;;;;7.85;1.63;;;;;;;19.87;39.03;99166.25;16112996;19;129297;-48
2023/03/31 23:35:10;;;;;;;10.57;1.83;;;;;;;19.84;38.96;99164.91;16111874;19;130212;-50
2023/03/31 23:40:32;;;;;;;4.95;1.50;;;;;;;19.79;38.85;99162.19;16114474;19;130046;-49
2023/03/31 23:45:54;;;;;;;17.05;2.33;;;;;;;19.77;39.02;99160.84;16111875;19;130601;-49
2023/03/31 23:51:17;;;;;;;11.30;1.65;;;;;;;19.73;39.17;99168.09;16112999;19;129777;-51
2023/03/31 23:56:39;;;;;;;6.18;1.48;;;;;;;19.68;38.65;99163.44;16114254;19;129942;-48
